createdAt,value
2019-05-17T00:01:37.872Z,13.60
2019-05-17T00:04:19.165Z,13.17
2019-05-17T00:06:49.183Z,12.50
2019-05-17T00:09:27.987Z,12.83
2019-05-17T00:11:59.763Z,13.77
2019-05-17T00:14:28.751Z,12.97
2019-05-17T00:17:10.427Z,12.30
2019-05-17T00:19:42.821Z,12.53
2019-05-17T00:22:18.568Z,12.47
2019-05-17T00:24:56.810Z,11.90
2019-05-17T00:27:31.791Z,12.80
2019-05-17T00:30:03.761Z,12.33
2019-05-17T00:32:33.259Z,14.30
2019-05-17T00:35:07.298Z,15.00
2019-05-17T00:37:39.147Z,14.47
2019-05-17T00:40:12.169Z,15.73
2019-05-17T00:42:52.801Z,16.60
2019-05-17T00:45:22.829Z,16.70
2019-05-17T00:47:58.759Z,16.87
2019-05-17T00:50:27.871Z,16.27
2019-05-17T00:53:00.137Z,17.47
2019-05-17T00:55:36.246Z,16.93
2019-05-17T00:58:06.901Z,17.67
2019-05-17T01:00:43.038Z,17.97
2019-05-17T01:03:16.282Z,17.67
2019-05-17T01:05:49.778Z,18.10
2019-05-17T01:08:27.731Z,18.13
2019-05-17T01:10:57.491Z,17.33
2019-05-17T01:13:29.967Z,18.17
2019-05-17T01:15:59.351Z,18.10
2019-05-17T01:18:31.486Z,17.87
2019-05-17T01:21:12.985Z,17.50
2019-05-17T01:24:00.447Z,16.70
2019-05-17T01:26:30.341Z,18.00
2019-05-17T01:29:02.928Z,17.77
2019-05-17T01:31:33.364Z,17.50
2019-05-17T01:34:02.971Z,17.10
2019-05-17T01:36:37.108Z,18.10
2019-05-17T01:39:17.742Z,17.40
2019-05-17T01:41:41.425Z,18.17
2019-05-17T01:44:13.376Z,17.33
2019-05-17T01:46:47.069Z,17.37
2019-05-17T01:49:17.145Z,17.33
2019-05-17T01:51:48.495Z,17.80
2019-05-17T01:54:20.815Z,18.77
2019-05-17T01:56:50.408Z,19.13
2019-05-17T01:59:21.466Z,18.03
2019-05-17T02:01:52.760Z,18.23
2019-05-17T02:04:22.010Z,18.77
2019-05-17T02:06:54.470Z,19.57
2019-05-17T02:09:37.144Z,18.50
2019-05-17T02:12:01.793Z,20.37
2019-05-17T02:14:48.922Z,22.40
2019-05-17T02:17:18.294Z,21.53
2019-05-17T02:19:49.980Z,22.07
2019-05-17T02:22:19.048Z,21.10
2019-05-17T02:24:48.425Z,22.20
2019-05-17T02:27:18.066Z,21.70
2019-05-17T02:29:53.316Z,21.37
2019-05-17T02:32:23.512Z,22.40
2019-05-17T02:35:03.005Z,22.40
2019-05-17T02:37:43.972Z,22.53
2019-05-17T02:40:15.042Z,23.37
2019-05-17T02:45:27.451Z,23.50
2019-05-17T02:48:03.259Z,22.20
2019-05-17T02:50:33.065Z,23.13
2019-05-17T02:53:06.040Z,24.07
2019-05-17T02:55:35.014Z,23.47
2019-05-17T02:58:13.009Z,22.77
2019-05-17T03:00:52.927Z,22.53
2019-05-17T03:03:28.922Z,22.50
2019-05-17T03:06:13.375Z,22.23
2019-05-17T03:08:47.404Z,22.97
2019-05-17T03:11:22.736Z,24.00
2019-05-17T03:14:03.660Z,23.97
2019-05-17T03:16:33.736Z,22.43
2019-05-17T03:19:04.117Z,23.67
2019-05-17T03:21:33.704Z,24.37
2019-05-17T03:24:03.543Z,23.13
2019-05-17T03:26:33.134Z,23.33
2019-05-17T03:29:03.239Z,23.10
2019-05-17T03:31:41.481Z,23.47
2019-05-17T03:34:06.565Z,24.03
2019-05-17T03:36:36.203Z,22.83
2019-05-17T03:39:05.460Z,23.80
2019-05-17T03:41:34.347Z,23.17
2019-05-17T03:44:03.547Z,24.03
2019-05-17T03:46:33.378Z,23.43
2019-05-17T03:49:03.875Z,24.53
2019-05-17T03:51:33.491Z,23.83
2019-05-17T03:54:02.679Z,23.50
2019-05-17T03:56:33.044Z,24.03
2019-05-17T03:59:03.673Z,23.30
2019-05-17T04:01:32.927Z,24.60
2019-05-17T04:04:02.840Z,23.50
2019-05-17T04:06:32.914Z,24.60
2019-05-17T04:09:03.701Z,22.67
2019-05-17T04:11:36.228Z,23.27
2019-05-17T04:14:03.298Z,22.97
2019-05-17T04:16:34.004Z,23.20
2019-05-17T04:19:03.206Z,22.53
2019-05-17T04:21:34.181Z,24.23
2019-05-17T04:24:03.405Z,22.97
2019-05-17T04:26:32.851Z,22.50
2019-05-17T04:29:03.550Z,22.13
2019-05-17T04:31:34.956Z,22.57
2019-05-17T04:34:03.355Z,23.23
2019-05-17T04:36:32.453Z,23.50
2019-05-17T04:39:02.497Z,23.00
2019-05-17T04:41:44.693Z,22.73
2019-05-17T04:44:02.709Z,22.07
2019-05-17T04:46:32.766Z,23.00
2019-05-17T04:49:03.037Z,22.13
2019-05-17T04:51:32.515Z,23.03
2019-05-17T04:54:03.164Z,23.37
2019-05-17T04:56:33.344Z,23.10
2019-05-17T04:59:03.455Z,21.87
2019-05-17T05:01:32.974Z,21.77
2019-05-17T05:04:03.455Z,22.23
2019-05-17T05:06:33.167Z,21.37
2019-05-17T05:09:02.808Z,21.23
2019-05-17T05:11:32.916Z,21.27
2019-05-17T05:14:02.986Z,21.20
2019-05-17T05:16:32.576Z,20.97
2019-05-17T05:19:02.852Z,19.33
2019-05-17T05:21:32.468Z,18.60
2019-05-17T05:24:02.486Z,18.23
2019-05-17T05:26:31.856Z,18.30
2019-05-17T05:29:02.234Z,18.70
2019-05-17T05:31:32.147Z,18.23
2019-05-17T05:34:01.873Z,18.13
2019-05-17T05:36:32.795Z,19.30
2019-05-17T05:39:02.358Z,19.10
2019-05-17T05:41:32.032Z,18.97
2019-05-17T05:44:01.918Z,19.40
2019-05-17T05:46:31.795Z,19.23
2019-05-17T05:49:01.761Z,17.67
2019-05-17T05:51:32.010Z,17.90
2019-05-17T05:54:01.768Z,17.90
2019-05-17T05:56:32.601Z,16.83
2019-05-17T05:59:02.934Z,17.93
2019-05-17T06:01:32.675Z,17.27
2019-05-17T06:04:02.771Z,18.33
2019-05-17T06:06:32.291Z,18.13
2019-05-17T06:09:02.769Z,19.23
2019-05-17T06:11:32.240Z,17.53
2019-05-17T06:14:01.727Z,18.43
2019-05-17T06:16:32.091Z,18.33
2019-05-17T06:19:02.392Z,19.47
2019-05-17T06:21:32.036Z,18.90
2019-05-17T06:24:02.621Z,18.63
2019-05-17T06:26:31.564Z,19.50
2019-05-17T06:29:02.779Z,17.33
2019-05-17T06:31:33.109Z,17.23
2019-05-17T06:34:01.926Z,16.97
2019-05-17T06:36:32.896Z,16.53
2019-05-17T06:39:02.234Z,17.80
2019-05-17T06:41:32.319Z,17.67
2019-05-17T06:44:02.892Z,18.80
2019-05-17T06:46:32.488Z,17.60
2019-05-17T06:49:03.055Z,18.50
2019-05-17T06:51:32.150Z,18.27
2019-05-17T06:54:01.794Z,17.67
2019-05-17T06:56:32.250Z,17.97
2019-05-17T06:59:01.688Z,17.50
2019-05-17T07:01:30.834Z,17.37
2019-05-17T07:04:00.257Z,18.37
2019-05-17T07:06:31.134Z,18.17
2019-05-17T07:09:00.968Z,18.47
2019-05-17T07:11:30.415Z,17.63
2019-05-17T07:13:59.732Z,19.00
2019-05-17T07:16:30.066Z,18.60
2019-05-17T07:18:59.743Z,17.90
2019-05-17T07:21:29.704Z,17.10
2019-05-17T07:23:59.389Z,18.33
2019-05-17T07:26:30.251Z,17.87
2019-05-17T07:28:59.593Z,18.03
2019-05-17T07:31:29.820Z,18.53
2019-05-17T07:33:59.869Z,17.53
2019-05-17T07:36:30.641Z,18.83
2019-05-17T07:39:00.762Z,19.10
2019-05-17T07:41:29.906Z,17.03
2019-05-17T07:44:00.394Z,18.53
2019-05-17T07:46:30.648Z,17.73
2019-05-17T07:49:10.830Z,17.10
2019-05-17T07:51:43.057Z,18.33
2019-05-17T07:54:12.658Z,18.40
2019-05-17T07:56:41.496Z,18.97
2019-05-17T07:59:10.210Z,18.30
2019-05-17T08:01:41.037Z,17.97
2019-05-17T08:04:10.006Z,18.20
2019-05-17T08:06:40.358Z,18.80
2019-05-17T08:09:13.913Z,18.87
2019-05-17T08:11:40.181Z,18.93
2019-05-17T08:14:10.564Z,17.90
2019-05-17T08:16:39.999Z,17.57
2019-05-17T08:19:09.736Z,17.60
2019-05-17T08:21:39.806Z,22.07
2019-05-17T08:24:12.310Z,18.97
2019-05-17T08:26:41.208Z,16.77
2019-05-17T08:29:10.241Z,17.37
2019-05-17T08:31:40.434Z,16.70
2019-05-17T08:34:10.360Z,17.40
2019-05-17T08:36:40.573Z,18.23
2019-05-17T08:39:10.267Z,18.03
2019-05-17T08:41:40.493Z,17.30
2019-05-17T08:44:10.036Z,18.53
2019-05-17T08:46:39.596Z,17.83
2019-05-17T08:49:09.750Z,18.80
2019-05-17T08:51:39.694Z,17.83
2019-05-17T08:54:10.322Z,18.40
2019-05-17T08:56:40.350Z,18.67
2019-05-17T08:59:09.670Z,18.73
2019-05-17T09:01:41.645Z,18.77
2019-05-17T09:04:09.377Z,17.63
2019-05-17T09:06:39.770Z,18.20
2019-05-17T09:09:10.007Z,17.90
2019-05-17T09:11:39.612Z,17.13
2019-05-17T09:14:10.448Z,19.33
2019-05-17T09:16:40.197Z,17.27
2019-05-17T09:19:10.129Z,18.77
2019-05-17T09:21:39.707Z,18.40
2019-05-17T09:24:10.378Z,18.30
2019-05-17T09:26:39.933Z,17.03
2019-05-17T09:29:10.736Z,17.33
2019-05-17T09:31:40.432Z,16.13
2019-05-17T09:34:09.693Z,17.67
2019-05-17T09:36:40.870Z,20.63
2019-05-17T09:39:09.576Z,18.93
2019-05-17T09:41:39.763Z,18.73
2019-05-17T09:44:15.605Z,18.30
2019-05-17T09:46:39.650Z,16.37
2019-05-17T09:49:10.449Z,15.57
2019-05-17T09:51:39.646Z,15.27
2019-05-17T09:54:10.228Z,17.20
2019-05-17T09:56:39.530Z,17.77
2019-05-17T09:59:10.010Z,15.77
2019-05-17T10:01:39.696Z,17.30
2019-05-17T10:04:12.914Z,15.83
2019-05-17T10:06:40.098Z,14.30
2019-05-17T10:09:09.596Z,17.23
2019-05-17T10:11:39.940Z,15.03
2019-05-17T10:14:11.452Z,16.53
2019-05-17T10:16:39.581Z,14.33
2019-05-17T10:19:09.566Z,14.47
2019-05-17T10:21:39.940Z,14.07
2019-05-17T10:24:09.701Z,11.57
2019-05-17T10:26:38.498Z,13.83
2019-05-17T10:29:09.867Z,12.83
2019-05-17T10:31:39.838Z,13.47
2019-05-17T10:34:09.612Z,12.20
2019-05-17T10:36:40.144Z,13.20
2019-05-17T10:39:09.907Z,10.43
2019-05-17T10:41:40.645Z,10.23
2019-05-17T10:44:09.491Z,13.90
2019-05-17T10:46:40.482Z,11.63
2019-05-17T10:49:10.826Z,10.67
2019-05-17T10:51:40.275Z,11.08
2019-05-17T10:54:09.676Z,9.60
2019-05-17T10:56:38.711Z,8.87
2019-05-17T10:59:09.670Z,8.15
2019-05-17T11:01:38.070Z,8.18
2019-05-17T11:04:07.265Z,8.90
2019-05-17T11:06:36.031Z,7.83
2019-05-17T11:09:06.050Z,8.25
2019-05-17T11:11:34.926Z,8.53
2019-05-17T11:14:03.726Z,8.40
2019-05-17T11:16:32.528Z,10.25
2019-05-17T11:19:01.346Z,12.20
2019-05-17T11:21:30.135Z,11.15
2019-05-17T11:23:59.071Z,12.80
2019-05-17T11:26:29.059Z,12.50
2019-05-17T11:28:57.891Z,11.57
2019-05-17T11:31:26.813Z,10.20
2019-05-17T11:33:55.521Z,10.23
2019-05-17T11:36:24.444Z,11.28
2019-05-17T11:38:53.267Z,11.70
2019-05-17T11:41:22.169Z,11.50
2019-05-17T11:43:51.007Z,13.18
2019-05-17T11:46:33.971Z,13.00
2019-05-17T11:48:50.625Z,13.05
2019-05-17T11:51:19.704Z,12.93
2019-05-17T11:53:48.667Z,13.03
2019-05-17T11:56:17.555Z,13.15
2019-05-17T11:58:46.421Z,13.20
2019-05-17T12:01:15.547Z,11.12
2019-05-17T12:03:44.587Z,11.33
2019-05-17T12:06:13.462Z,14.55
2019-05-17T12:08:42.525Z,13.95
2019-05-17T12:11:11.591Z,12.85
2019-05-17T12:13:44.716Z,13.05
2019-05-17T12:16:21.169Z,10.15
2019-05-17T12:18:56.717Z,12.00
2019-05-17T12:21:39.551Z,11.97
2019-05-17T12:24:09.757Z,13.85
2019-05-17T12:26:47.495Z,14.73
2019-05-17T12:29:15.969Z,14.68
2019-05-17T12:31:45.331Z,15.38
2019-05-17T12:34:14.439Z,16.17
2019-05-17T12:36:43.875Z,15.70
2019-05-17T12:39:12.966Z,15.63
2019-05-17T12:41:43.322Z,17.42
2019-05-17T12:44:12.590Z,15.88
2019-05-17T12:46:41.953Z,15.53
2019-05-17T12:49:10.882Z,13.45
2019-05-17T12:51:39.839Z,13.53
2019-05-17T12:54:08.973Z,15.28
2019-05-17T12:56:38.427Z,15.45
2019-05-17T12:59:07.778Z,12.13
2019-05-17T13:01:36.719Z,16.87
2019-05-17T13:04:06.018Z,15.13
2019-05-17T13:06:35.213Z,16.05
2019-05-17T13:09:04.824Z,16.62
2019-05-17T13:11:33.558Z,14.90
2019-05-17T13:14:02.951Z,14.83
2019-05-17T13:16:31.647Z,15.88
2019-05-17T13:19:00.532Z,14.00
2019-05-17T13:21:29.554Z,15.50
2019-05-17T13:23:58.355Z,15.63
2019-05-17T13:26:27.121Z,13.05
2019-05-17T13:28:56.180Z,12.50
2019-05-17T13:31:24.946Z,14.57
2019-05-17T13:33:53.767Z,13.13
2019-05-17T13:36:22.507Z,13.13
2019-05-17T13:38:51.430Z,13.03
2019-05-17T13:41:20.335Z,11.12
2019-05-17T13:43:49.116Z,12.30
2019-05-17T13:46:31.765Z,11.40
2019-05-17T13:48:48.351Z,12.40
2019-05-17T13:51:17.485Z,8.45
2019-05-17T13:53:46.346Z,7.40
2019-05-17T13:56:15.186Z,7.10
2019-05-17T13:58:44.113Z,6.60
2019-05-17T14:01:13.101Z,5.30
2019-05-17T14:03:41.934Z,7.83
2019-05-17T14:06:10.846Z,7.62
2019-05-17T14:08:39.850Z,6.00
2019-05-17T14:11:08.552Z,4.28
2019-05-17T14:13:37.655Z,3.72
2019-05-17T14:16:06.598Z,3.20
2019-05-17T14:18:35.338Z,2.70
2019-05-17T14:21:04.396Z,3.30
2019-05-17T14:23:33.260Z,4.22
2019-05-17T14:26:02.561Z,5.05
2019-05-17T14:28:31.820Z,4.85
2019-05-17T14:31:00.849Z,6.00
2019-05-17T14:33:29.803Z,6.33
2019-05-17T14:35:58.744Z,5.75
2019-05-17T14:38:27.642Z,5.50
2019-05-17T14:41:11.712Z,5.40
2019-05-17T14:43:27.046Z,6.05
2019-05-17T14:45:56.040Z,6.12
2019-05-17T14:48:24.835Z,6.05
2019-05-17T14:50:53.765Z,5.80
2019-05-17T14:53:22.765Z,6.80
2019-05-17T14:55:51.500Z,6.72
2019-05-17T14:58:20.568Z,6.70
2019-05-17T15:00:49.497Z,7.15
2019-05-17T15:03:18.410Z,6.87
2019-05-17T15:05:47.319Z,8.75
2019-05-17T15:08:16.259Z,8.45
2019-05-17T15:10:45.208Z,9.68
2019-05-17T15:13:14.144Z,10.05
2019-05-17T15:15:42.901Z,9.93
2019-05-17T15:18:12.451Z,8.95
2019-05-17T15:20:41.754Z,10.90
2019-05-17T15:23:10.693Z,11.12
2019-05-17T15:25:39.980Z,12.25
2019-05-17T15:28:09.384Z,14.25
2019-05-17T15:30:38.438Z,14.75
2019-05-17T15:33:07.229Z,14.18
2019-05-17T15:35:35.936Z,15.27
2019-05-17T15:38:05.148Z,15.07
2019-05-17T15:40:34.423Z,13.55
2019-05-17T15:43:03.687Z,24.67
2019-05-17T15:45:32.903Z,19.82
2019-05-17T15:48:01.978Z,23.40
2019-05-17T15:50:31.221Z,24.55
2019-05-17T15:53:03.362Z,23.03
2019-05-17T15:55:32.649Z,46.77
2019-05-17T15:58:06.881Z,33.85
2019-05-17T16:00:36.054Z,18.60
2019-05-17T16:03:07.631Z,13.17
2019-05-17T16:05:37.342Z,11.83
2019-05-17T16:08:09.388Z,12.30
2019-05-17T16:10:41.985Z,12.47
2019-05-17T16:13:11.587Z,12.20
2019-05-17T16:15:40.969Z,12.65
2019-05-17T16:18:10.087Z,10.93
2019-05-17T16:20:39.129Z,9.83
2019-05-17T16:23:07.995Z,9.30
2019-05-17T16:25:36.885Z,8.20
2019-05-17T16:28:05.640Z,8.73
2019-05-17T16:30:34.508Z,9.60
2019-05-17T16:33:03.618Z,10.28
2019-05-17T16:35:32.632Z,11.10
2019-05-17T16:38:01.399Z,10.48
2019-05-17T16:40:30.044Z,10.87
2019-05-17T16:42:58.751Z,11.10
2019-05-17T16:45:27.615Z,13.23
2019-05-17T16:47:56.401Z,13.60
2019-05-17T16:50:25.203Z,12.63
2019-05-17T16:53:05.722Z,12.83
2019-05-17T16:55:26.112Z,11.83
2019-05-17T16:57:55.462Z,11.23
2019-05-17T17:00:34.571Z,12.33
2019-05-17T17:03:04.210Z,10.27
2019-05-17T17:05:33.401Z,6.23
2019-05-17T17:08:02.680Z,6.80
2019-05-17T17:10:31.556Z,7.30
2019-05-17T17:13:00.277Z,8.20
2019-05-17T17:15:29.228Z,7.10
2019-05-17T17:17:58.448Z,7.67
2019-05-17T17:20:27.435Z,7.43
2019-05-17T17:22:56.611Z,7.53
2019-05-17T17:25:25.241Z,7.60
2019-05-17T17:27:54.268Z,7.60
2019-05-17T17:30:23.281Z,7.70
2019-05-17T17:32:51.982Z,7.13
2019-05-17T17:35:21.014Z,6.67
2019-05-17T17:37:50.179Z,5.80
2019-05-17T17:40:22.549Z,5.90
2019-05-17T17:42:51.537Z,5.60
2019-05-17T17:45:22.743Z,5.23
2019-05-17T17:47:51.862Z,4.90
2019-05-17T17:50:21.033Z,5.03
2019-05-17T17:52:50.619Z,4.27
2019-05-17T17:55:19.974Z,5.13
2019-05-17T17:57:49.119Z,6.30
2019-05-17T18:00:18.413Z,4.90
2019-05-17T18:02:47.089Z,6.87
2019-05-17T18:05:16.363Z,8.57
2019-05-17T18:07:45.362Z,7.87
2019-05-17T18:10:23.461Z,5.17
2019-05-17T18:12:52.262Z,6.10
2019-05-17T18:15:22.436Z,7.20
2019-05-17T18:17:51.195Z,6.30
2019-05-17T18:20:19.985Z,6.47
2019-05-17T18:22:48.792Z,6.80
2019-05-17T18:25:17.522Z,6.33
2019-05-17T18:27:46.410Z,6.73
2019-05-17T18:30:15.668Z,6.50
2019-05-17T18:32:44.577Z,5.97
2019-05-17T18:35:13.369Z,5.13
2019-05-17T18:37:45.215Z,4.97
2019-05-17T18:40:24.284Z,4.60
2019-05-17T18:42:53.314Z,5.00
2019-05-17T18:45:22.957Z,5.73
2019-05-17T18:47:52.388Z,5.90
2019-05-17T18:50:21.282Z,5.57
2019-05-17T18:52:50.025Z,5.87
2019-05-17T18:55:18.805Z,6.50
2019-05-17T18:57:47.702Z,6.87
2019-05-17T19:00:16.688Z,6.17
2019-05-17T19:02:45.423Z,6.67
2019-05-17T19:05:15.798Z,6.30
2019-05-17T19:07:44.790Z,6.07
2019-05-17T19:10:14.382Z,6.10
2019-05-17T19:12:43.291Z,5.97
2019-05-17T19:15:12.902Z,6.33
2019-05-17T19:17:41.696Z,7.33
2019-05-17T19:20:10.584Z,8.40
2019-05-17T19:22:39.774Z,9.27
2019-05-17T19:25:09.593Z,11.33
2019-05-17T19:27:38.358Z,9.97
2019-05-17T19:30:07.831Z,11.23
2019-05-17T19:32:36.657Z,13.80
2019-05-17T19:35:05.748Z,14.50
2019-05-17T19:37:34.636Z,17.20
2019-05-17T19:40:03.856Z,17.87
2019-05-17T19:42:32.633Z,20.93
2019-05-17T19:45:01.795Z,20.37
2019-05-17T19:47:30.880Z,22.93
2019-05-17T19:49:59.664Z,21.50
2019-05-17T19:52:28.599Z,21.93
2019-05-17T19:54:57.561Z,22.87
2019-05-17T19:57:26.378Z,22.87
2019-05-17T19:59:55.256Z,23.43
2019-05-17T20:02:24.250Z,24.33
2019-05-17T20:04:52.924Z,23.97
2019-05-17T20:07:22.106Z,23.80
2019-05-17T20:09:51.305Z,24.53
2019-05-17T20:12:20.260Z,24.67
2019-05-17T20:14:49.329Z,25.00
2019-05-17T20:17:18.240Z,25.30
2019-05-17T20:19:47.158Z,25.07
2019-05-17T20:22:15.998Z,26.63
2019-05-17T20:24:44.935Z,24.77
2019-05-17T20:27:13.677Z,24.77
2019-05-17T20:29:42.670Z,25.30
2019-05-17T20:32:11.442Z,24.63
2019-05-17T20:34:40.404Z,23.57
2019-05-17T20:37:09.444Z,22.33
2019-05-17T20:39:38.290Z,20.60
2019-05-17T20:42:07.202Z,17.30
2019-05-17T20:44:36.112Z,17.90
2019-05-17T20:47:05.440Z,16.20
2019-05-17T20:49:34.202Z,14.73
2019-05-17T20:52:03.043Z,13.37
2019-05-17T20:54:32.194Z,12.93
2019-05-17T20:57:01.267Z,12.87
2019-05-17T20:59:30.257Z,12.97
2019-05-17T21:01:59.281Z,12.67
2019-05-17T21:04:28.165Z,12.97
2019-05-17T21:06:57.155Z,13.30
2019-05-17T21:09:26.045Z,13.63
2019-05-17T21:11:54.857Z,13.37
2019-05-17T21:14:23.931Z,13.73
2019-05-17T21:16:52.727Z,14.70
2019-05-17T21:19:21.661Z,13.83
2019-05-17T21:21:50.961Z,14.33
2019-05-17T21:24:19.807Z,14.43
2019-05-17T21:26:48.691Z,14.60
2019-05-17T21:29:17.511Z,15.33
2019-05-17T21:31:46.599Z,14.93
2019-05-17T21:34:15.869Z,15.23
2019-05-17T21:36:44.919Z,15.30
2019-05-17T21:39:13.806Z,15.07
2019-05-17T21:41:42.763Z,14.97
2019-05-17T21:44:11.791Z,15.03
2019-05-17T21:46:40.733Z,15.43
2019-05-17T21:49:10.084Z,14.50
2019-05-17T21:51:38.876Z,15.13
2019-05-17T21:54:07.660Z,15.87
2019-05-17T21:56:36.653Z,15.10
2019-05-17T21:59:05.533Z,16.10
2019-05-17T22:01:34.493Z,15.33
2019-05-17T22:04:03.531Z,15.57
2019-05-17T22:06:32.693Z,16.17
2019-05-17T22:09:02.179Z,17.67
2019-05-17T22:11:33.269Z,16.63
2019-05-17T22:14:02.264Z,17.43
2019-05-17T22:16:31.049Z,17.20
2019-05-17T22:18:59.947Z,17.17
2019-05-17T22:21:29.191Z,16.13
2019-05-17T22:23:58.437Z,16.33
2019-05-17T22:26:27.285Z,16.70
2019-05-17T22:28:56.171Z,16.07
2019-05-17T22:31:25.059Z,16.13
2019-05-17T22:33:54.055Z,15.80
2019-05-17T22:36:23.043Z,16.67
2019-05-17T22:38:51.889Z,16.17
2019-05-17T22:41:20.977Z,17.70
2019-05-17T22:43:50.175Z,19.93
2019-05-17T22:46:34.734Z,20.47
2019-05-17T22:48:49.901Z,21.30
2019-05-17T22:51:18.943Z,22.03
2019-05-17T22:53:48.294Z,22.37
2019-05-17T22:56:17.497Z,21.80
2019-05-17T22:58:46.638Z,23.07
2019-05-17T23:01:15.684Z,23.03
2019-05-17T23:03:45.041Z,22.90
2019-05-17T23:06:14.108Z,24.10
2019-05-17T23:08:43.339Z,23.30
2019-05-17T23:11:12.744Z,25.00
2019-05-17T23:13:41.796Z,25.00
2019-05-17T23:16:12.237Z,24.93
2019-05-17T23:18:42.674Z,24.93
2019-05-17T23:21:11.443Z,24.37
2019-05-17T23:23:40.110Z,25.73
2019-05-17T23:26:08.747Z,27.17
2019-05-17T23:28:37.581Z,25.80
2019-05-17T23:31:06.377Z,26.77
2019-05-17T23:33:35.558Z,27.63
2019-05-17T23:36:04.907Z,29.13
2019-05-17T23:38:33.805Z,29.57
2019-05-17T23:41:02.489Z,30.63
2019-05-17T23:43:31.488Z,30.30
2019-05-17T23:46:00.520Z,31.80
2019-05-17T23:48:29.414Z,31.17
2019-05-17T23:50:58.167Z,30.13
2019-05-17T23:53:27.281Z,31.00
2019-05-17T23:55:56.234Z,29.93
2019-05-17T23:58:25.026Z,31.27
